Time;durP1;ratioP1;P1;durP2;ratioP2;P2;SDS_P1;SDS_P2;PMS_P1;PMS_P2;Temp;Humidity;BMP_temperature;BMP_pressure;BME280_temperature;BME280_humidity;BME280_pressure;Samples;Min_cycle;Max_cycle;Signal;HPM_P1;HPM_P2
2022/04/22 00:01:23;;;;;;;8.57;7.38;;;;;;;;;;4981033;28;20133;-70
2022/04/22 00:03:49;;;;;;;14.07;7.38;;;;;;;;;;4982935;28;20049;-70
2022/04/22 00:06:14;;;;;;;11.98;8.48;;;;;;;;;;4982298;28;20038;-70
2022/04/22 00:08:39;;;;;;;10.18;7.50;;;;;;;;;;4982525;28;20049;-70
2022/04/22 00:13:50;;;;;;;11.50;7.30;;;;;;;;;;4982534;28;20087;-70
2022/04/22 00:16:17;;;;;;;11.05;7.80;;;;;;;;;;4982445;28;20029;-70
2022/04/22 00:18:44;;;;;;;9.00;7.65;;;;;;;;;;4982525;28;20092;-70
2022/04/22 00:21:09;;;;;;;9.95;7.75;;;;;;;;;;4981400;28;20100;-70
2022/04/22 00:23:35;;;;;;;10.52;7.43;;;;;;;;;;4981852;28;20042;-70
2022/04/22 00:26:00;;;;;;;11.10;7.60;;;;;;;;;;4981982;28;20093;-70
2022/04/22 00:28:26;;;;;;;10.13;7.22;;;;;;;;;;4982164;28;20038;-69
2022/04/22 00:30:52;;;;;;;9.90;7.60;;;;;;;;;;4981941;28;20038;-68
2022/04/22 00:33:17;;;;;;;12.52;8.05;;;;;;;;;;4981506;28;20159;-70
2022/04/22 00:35:44;;;;;;;8.98;7.50;;;;;;;;;;4981964;28;20494;-70
2022/04/22 00:38:10;;;;;;;9.20;7.80;;;;;;;;;;4982035;28;20038;-70
2022/04/22 00:40:36;;;;;;;11.00;8.10;;;;;;;;;;4981850;28;20073;-70
2022/04/22 00:43:17;;;;;;;9.35;7.55;;;;;;;;;;4982114;28;20030;-69
2022/04/22 00:45:42;;;;;;;12.32;7.95;;;;;;;;;;4981794;28;20557;-70
2022/04/22 00:48:08;;;;;;;10.98;8.02;;;;;;;;;;4981968;28;20039;-70
2022/04/22 00:50:34;;;;;;;10.55;8.02;;;;;;;;;;4981975;28;20034;-70
2022/04/22 00:52:59;;;;;;;10.52;8.05;;;;;;;;;;4981985;28;20050;-70
2022/04/22 00:55:27;;;;;;;13.50;8.15;;;;;;;;;;4981308;28;20107;-70
2022/04/22 00:57:53;;;;;;;10.60;8.68;;;;;;;;;;4981672;28;20388;-70
2022/04/22 01:00:19;;;;;;;10.82;7.57;;;;;;;;;;4982317;28;20121;-70
2022/04/22 01:02:44;;;;;;;11.13;8.25;;;;;;;;;;4948094;28;20309;-70
2022/04/22 01:10:38;;;;;;;11.60;7.78;;;;;;;;;;4981270;28;20049;-69
2022/04/22 01:13:07;;;;;;;10.82;8.02;;;;;;;;;;4981788;28;20038;-70
2022/04/22 01:15:37;;;;;;;10.25;7.78;;;;;;;;;;4981707;28;20030;-70
2022/04/22 01:18:03;;;;;;;12.45;8.50;;;;;;;;;;4980497;28;20050;-70
2022/04/22 01:20:29;;;;;;;11.20;8.23;;;;;;;;;;4981664;28;20030;-70
2022/04/22 01:22:54;;;;;;;10.05;8.02;;;;;;;;;;4980992;28;20499;-70
2022/04/22 01:25:20;;;;;;;10.98;8.23;;;;;;;;;;4981760;28;20376;-70
2022/04/22 01:27:50;;;;;;;11.57;8.52;;;;;;;;;;4980641;28;20127;-70
2022/04/22 01:30:20;;;;;;;15.05;8.68;;;;;;;;;;4981295;28;20494;-70
2022/04/22 01:32:46;;;;;;;10.88;8.73;;;;;;;;;;4981177;28;20046;-70
2022/04/22 01:35:12;;;;;;;13.50;8.85;;;;;;;;;;4981867;28;20124;-69
2022/04/22 01:37:37;;;;;;;9.98;8.30;;;;;;;;;;4981733;28;20618;-70
2022/04/22 01:40:03;;;;;;;14.68;8.90;;;;;;;;;;4980211;28;20088;-70
2022/04/22 01:42:28;;;;;;;10.93;8.55;;;;;;;;;;4981211;28;20054;-69
2022/04/22 01:44:54;;;;;;;12.80;8.88;;;;;;;;;;4981948;28;20041;-70
2022/04/22 01:47:19;;;;;;;12.48;9.60;;;;;;;;;;4981660;28;20038;-70
2022/04/22 01:49:45;;;;;;;10.20;8.05;;;;;;;;;;4981067;28;20035;-70
2022/04/22 01:52:10;;;;;;;11.55;8.13;;;;;;;;;;4974069;28;20133;-69
2022/04/22 01:54:36;;;;;;;11.18;8.73;;;;;;;;;;4981061;28;20039;-69
2022/04/22 01:57:03;;;;;;;12.70;8.93;;;;;;;;;;4980523;28;20088;-69
2022/04/22 01:59:28;;;;;;;11.27;8.88;;;;;;;;;;4981182;28;20049;-70
2022/04/22 02:01:54;;;;;;;13.77;8.77;;;;;;;;;;4980268;28;20038;-70
2022/04/22 02:04:19;;;;;;;10.88;9.05;;;;;;;;;;4981596;28;20161;-69
2022/04/22 02:06:45;;;;;;;11.40;8.98;;;;;;;;;;4981879;28;20038;-69
2022/04/22 02:09:11;;;;;;;10.40;8.50;;;;;;;;;;4981821;28;20034;-69
2022/04/22 02:11:36;;;;;;;11.50;8.68;;;;;;;;;;4981211;28;20034;-71
2022/04/22 02:14:02;;;;;;;10.43;8.27;;;;;;;;;;4981278;28;20042;-71
2022/04/22 02:16:28;;;;;;;10.52;8.43;;;;;;;;;;4981523;28;20538;-71
2022/04/22 02:18:53;;;;;;;11.30;8.32;;;;;;;;;;4981261;28;20136;-70
2022/04/22 02:21:21;;;;;;;13.50;9.43;;;;;;;;;;4984544;28;20435;-70
2022/04/22 02:23:46;;;;;;;10.60;8.48;;;;;;;;;;4984459;28;20100;-70
2022/04/22 02:26:12;;;;;;;13.73;9.25;;;;;;;;;;4984136;28;20042;-69
2022/04/22 02:28:38;;;;;;;12.40;8.90;;;;;;;;;;4984659;28;20042;-69
2022/04/22 02:31:06;;;;;;;12.07;8.82;;;;;;;;;;4984335;28;20410;-69
2022/04/22 02:33:35;;;;;;;11.00;8.55;;;;;;;;;;4984089;28;20034;-70
2022/04/22 02:36:02;;;;;;;14.45;8.93;;;;;;;;;;4966830;28;20404;-69
2022/04/22 02:38:28;;;;;;;10.65;8.05;;;;;;;;;;4984875;28;20046;-69
2022/04/22 02:46:24;;;;;;;13.07;9.15;;;;;;;;;;4983491;28;20043;-70
2022/04/22 02:48:51;;;;;;;13.98;9.10;;;;;;;;;;4984574;28;20038;-70
2022/04/22 02:51:16;;;;;;;19.23;9.32;;;;;;;;;;4984003;28;20495;-71
2022/04/22 02:53:43;;;;;;;11.55;8.75;;;;;;;;;;4984321;28;20073;-70
2022/04/22 02:56:09;;;;;;;12.27;8.38;;;;;;;;;;4983689;28;20128;-71
2022/04/22 02:58:35;;;;;;;12.95;9.18;;;;;;;;;;4984258;28;20138;-70
2022/04/22 03:01:02;;;;;;;13.35;9.35;;;;;;;;;;4983624;28;20034;-70
2022/04/22 03:03:28;;;;;;;13.45;9.23;;;;;;;;;;4984161;28;20519;-70
2022/04/22 03:05:54;;;;;;;13.07;9.82;;;;;;;;;;4983845;28;20069;-70
2022/04/22 03:08:19;;;;;;;13.65;8.98;;;;;;;;;;4982278;28;20134;-70
2022/04/22 03:10:47;;;;;;;12.93;8.65;;;;;;;;;;4984004;28;20041;-70
2022/04/22 03:13:13;;;;;;;11.95;9.43;;;;;;;;;;4983927;28;20070;-69
2022/04/22 03:15:38;;;;;;;12.95;8.98;;;;;;;;;;4983784;28;20117;-69
2022/04/22 03:18:04;;;;;;;13.25;9.25;;;;;;;;;;4982737;28;20049;-69
2022/04/22 03:20:30;;;;;;;13.93;9.55;;;;;;;;;;4983808;28;20070;-70
2022/04/22 03:22:55;;;;;;;12.57;9.75;;;;;;;;;;4983403;28;20043;-69
2022/04/22 03:25:21;;;;;;;11.75;9.40;;;;;;;;;;4984076;28;20046;-70
2022/04/22 03:27:47;;;;;;;13.73;9.70;;;;;;;;;;4983535;28;20125;-69
2022/04/22 03:30:13;;;;;;;11.00;9.00;;;;;;;;;;4982265;28;20761;-70
2022/04/22 03:32:38;;;;;;;11.57;8.90;;;;;;;;;;4964978;28;20121;-69
2022/04/22 03:35:04;;;;;;;11.82;9.25;;;;;;;;;;4983588;28;20041;-70
2022/04/22 03:37:31;;;;;;;13.27;9.35;;;;;;;;;;4983481;28;20091;-70
2022/04/22 03:39:57;;;;;;;12.75;8.93;;;;;;;;;;4982504;28;20046;-70
2022/04/22 03:42:22;;;;;;;12.80;9.65;;;;;;;;;;4982750;28;20057;-70
2022/04/22 03:44:48;;;;;;;15.65;10.32;;;;;;;;;;4982971;28;20149;-69
2022/04/22 03:47:14;;;;;;;10.27;8.45;;;;;;;;;;4983029;28;20042;-69
2022/04/22 03:49:39;;;;;;;9.77;8.32;;;;;;;;;;4982853;28;20501;-70
2022/04/22 03:52:05;;;;;;;13.43;9.00;;;;;;;;;;4979918;28;20030;-70
2022/04/22 03:54:30;;;;;;;18.20;9.95;;;;;;;;;;4982813;28;20558;-69
2022/04/22 03:59:39;;;;;;;12.65;9.65;;;;;;;;;;4983097;28;20069;-70
2022/04/22 04:02:05;;;;;;;15.13;9.35;;;;;;;;;;4979439;28;20038;-70
2022/04/22 04:04:30;;;;;;;14.27;10.23;;;;;;;;;;4979161;28;20030;-69
2022/04/22 04:06:56;;;;;;;11.50;9.25;;;;;;;;;;4980695;28;20038;-69
2022/04/22 04:17:36;;;;;;;17.25;11.38;;;;;;;;;;4983543;28;20487;-69
2022/04/22 04:25:30;;;;;;;15.88;10.80;;;;;;;;;;4983058;28;20120;-69
2022/04/22 04:27:56;;;;;;;14.88;10.05;;;;;;;;;;4982498;28;20028;-69
2022/04/22 04:30:22;;;;;;;14.65;10.20;;;;;;;;;;4971159;28;20123;-69
2022/04/22 04:32:48;;;;;;;13.50;9.98;;;;;;;;;;4982463;28;20037;-69
2022/04/22 04:35:13;;;;;;;14.65;10.57;;;;;;;;;;4982127;28;20026;-69
2022/04/22 04:37:41;;;;;;;15.75;10.30;;;;;;;;;;4982201;28;20500;-69
2022/04/22 04:40:08;;;;;;;14.20;9.70;;;;;;;;;;4982971;28;20109;-69
2022/04/22 04:42:33;;;;;;;12.68;9.93;;;;;;;;;;4981969;28;20049;-70
2022/04/22 04:44:58;;;;;;;15.10;10.32;;;;;;;;;;4982723;28;20026;-69
2022/04/22 04:47:24;;;;;;;13.43;9.85;;;;;;;;;;4963982;28;20398;-68
2022/04/22 04:49:49;;;;;;;14.00;9.50;;;;;;;;;;4982778;28;20140;-68
2022/04/22 04:52:15;;;;;;;12.05;9.13;;;;;;;;;;4981803;28;20085;-68
2022/04/22 04:54:40;;;;;;;12.52;10.23;;;;;;;;;;4964146;28;20038;-68
2022/04/22 04:57:06;;;;;;;16.17;9.82;;;;;;;;;;4980874;28;20053;-69
2022/04/22 04:59:32;;;;;;;12.27;9.60;;;;;;;;;;4981537;28;20038;-69
2022/04/22 05:01:57;;;;;;;13.10;9.88;;;;;;;;;;4980357;28;20034;-69
2022/04/22 05:04:23;;;;;;;11.75;8.95;;;;;;;;;;4981872;28;20069;-70
2022/04/22 05:06:48;;;;;;;12.65;9.75;;;;;;;;;;4981279;28;20077;-70
2022/04/22 05:09:14;;;;;;;12.60;9.20;;;;;;;;;;4962897;28;20044;-71
2022/04/22 05:11:39;;;;;;;12.15;9.57;;;;;;;;;;4981047;28;20049;-71
2022/04/22 05:14:06;;;;;;;14.93;9.30;;;;;;;;;;4980697;28;20096;-70
2022/04/22 05:16:33;;;;;;;14.05;9.32;;;;;;;;;;4979326;28;20038;-70
2022/04/22 05:18:58;;;;;;;12.93;8.88;;;;;;;;;;4979034;28;20042;-69
2022/04/22 05:21:23;;;;;;;15.23;9.10;;;;;;;;;;4978666;28;20038;-70
2022/04/22 05:23:49;;;;;;;12.75;8.88;;;;;;;;;;4979975;28;20065;-68
2022/04/22 05:26:14;;;;;;;12.05;9.20;;;;;;;;;;4979347;28;20390;-70
2022/04/22 05:28:40;;;;;;;12.00;9.15;;;;;;;;;;4980011;28;20093;-71
2022/04/22 05:33:51;;;;;;;11.98;8.70;;;;;;;;;;4964043;28;20141;-69
2022/04/22 05:36:18;;;;;;;11.77;8.93;;;;;;;;;;4981285;28;20149;-69
2022/04/22 05:38:44;;;;;;;13.55;8.68;;;;;;;;;;4981026;28;20491;-70
2022/04/22 05:41:09;;;;;;;13.25;8.57;;;;;;;;;;4979956;28;20042;-69
2022/04/22 05:43:37;;;;;;;12.30;8.68;;;;;;;;;;4981175;28;20290;-71
2022/04/22 05:46:03;;;;;;;15.70;9.00;;;;;;;;;;4981155;28;20030;-70
2022/04/22 05:48:28;;;;;;;13.60;9.48;;;;;;;;;;4980873;28;20031;-69
2022/04/22 05:50:54;;;;;;;9.73;8.27;;;;;;;;;;4980973;28;20504;-69
2022/04/22 05:53:19;;;;;;;10.07;8.23;;;;;;;;;;4979255;28;20042;-70
2022/04/22 05:55:46;;;;;;;11.15;8.57;;;;;;;;;;4983915;28;20042;-70
2022/04/22 05:58:11;;;;;;;12.50;9.25;;;;;;;;;;4984845;28;20049;-69
2022/04/22 06:00:36;;;;;;;10.50;8.23;;;;;;;;;;4984722;28;20046;-70
2022/04/22 06:03:02;;;;;;;10.25;8.45;;;;;;;;;;4983541;28;20038;-69
2022/04/22 06:05:28;;;;;;;11.57;9.18;;;;;;;;;;4984727;28;20042;-70
2022/04/22 06:10:39;;;;;;;15.48;9.63;;;;;;;;;;4984918;28;20062;-68
2022/04/22 06:13:05;;;;;;;11.77;9.02;;;;;;;;;;4984328;28;20528;-71
2022/04/22 06:15:31;;;;;;;11.77;9.18;;;;;;;;;;4982115;28;20125;-71
2022/04/22 06:17:57;;;;;;;11.80;9.00;;;;;;;;;;4984860;28;20453;-68
2022/04/22 06:20:23;;;;;;;11.05;8.73;;;;;;;;;;4984837;28;20112;-70
2022/04/22 06:22:49;;;;;;;11.32;8.40;;;;;;;;;;4983995;28;20037;-71
2022/04/22 06:25:15;;;;;;;12.73;9.05;;;;;;;;;;4984180;28;20031;-68
2022/04/22 06:27:43;;;;;;;11.70;9.65;;;;;;;;;;4984199;28;20062;-70
2022/04/22 06:30:17;;;;;;;11.77;8.93;;;;;;;;;;4984013;28;20046;-70
2022/04/22 06:32:44;;;;;;;13.68;8.43;;;;;;;;;;4977738;28;20121;-70
2022/04/22 06:35:11;;;;;;;10.30;9.20;;;;;;;;;;4972930;28;20041;-72
2022/04/22 06:37:42;;;;;;;11.38;8.85;;;;;;;;;;4976813;28;20479;-70
2022/04/22 06:45:48;;;;;;;15.18;7.57;;;;;;;;;;4975362;28;20446;-69
2022/04/22 06:48:20;;;;;;;10.45;8.30;;;;;;;;;;4976081;28;20074;-70
2022/04/22 06:50:48;;;;;;;13.07;8.80;;;;;;;;;;4975832;28;20603;-70
2022/04/22 06:53:15;;;;;;;13.00;8.95;;;;;;;;;;4974900;28;20116;-70
2022/04/22 06:55:41;;;;;;;11.75;9.02;;;;;;;;;;4975641;28;20057;-70
2022/04/22 06:58:12;;;;;;;12.95;9.15;;;;;;;;;;4980260;28;20403;-70
2022/04/22 07:00:39;;;;;;;10.98;8.27;;;;;;;;;;4981675;28;20479;-69
2022/04/22 07:03:05;;;;;;;10.75;8.48;;;;;;;;;;4983370;28;20092;-69
2022/04/22 07:05:33;;;;;;;11.45;7.90;;;;;;;;;;4983080;28;20042;-69
2022/04/22 07:07:59;;;;;;;10.55;8.35;;;;;;;;;;4983239;28;20479;-70
2022/04/22 07:10:25;;;;;;;11.05;7.78;;;;;;;;;;4982931;28;20042;-69
2022/04/22 07:12:50;;;;;;;11.30;8.07;;;;;;;;;;4983294;28;20038;-68
2022/04/22 07:15:16;;;;;;;15.02;9.25;;;;;;;;;;4983780;28;20078;-69
2022/04/22 07:17:42;;;;;;;12.15;8.40;;;;;;;;;;4983786;28;20062;-69
2022/04/22 07:20:10;;;;;;;11.75;8.32;;;;;;;;;;4981942;28;20387;-70
2022/04/22 07:22:40;;;;;;;11.85;8.35;;;;;;;;;;4983306;28;20061;-69
2022/04/22 07:25:07;;;;;;;9.93;7.28;;;;;;;;;;4982893;28;20494;-70
2022/04/22 07:27:35;;;;;;;13.48;7.53;;;;;;;;;;4983162;28;20034;-69
2022/04/22 07:30:05;;;;;;;12.57;7.95;;;;;;;;;;4978976;28;20096;-70
2022/04/22 07:32:31;;;;;;;13.10;8.23;;;;;;;;;;4980807;28;20034;-69
2022/04/22 07:34:56;;;;;;;12.60;8.32;;;;;;;;;;4982618;28;20042;-69
2022/04/22 07:37:23;;;;;;;6.78;6.07;;;;;;;;;;4982596;28;20100;-69
2022/04/22 07:39:48;;;;;;;8.25;7.35;;;;;;;;;;4982100;28;20513;-70
2022/04/22 07:42:17;;;;;;;11.50;7.57;;;;;;;;;;4980755;28;20121;-69
2022/04/22 07:47:36;;;;;;;11.32;7.38;;;;;;;;;;4982228;28;20453;-69
2022/04/22 07:50:05;;;;;;;9.25;7.80;;;;;;;;;;4981917;28;20034;-69
2022/04/22 07:52:38;;;;;;;11.07;7.32;;;;;;;;;;4980500;28;20191;-69
2022/04/22 07:55:04;;;;;;;12.25;7.15;;;;;;;;;;4982304;28;20048;-69
2022/04/22 07:57:30;;;;;;;11.57;7.72;;;;;;;;;;4982019;28;20038;-71
2022/04/22 07:59:56;;;;;;;10.20;7.18;;;;;;;;;;4981896;28;20093;-69
2022/04/22 08:02:22;;;;;;;12.95;8.45;;;;;;;;;;4980793;28;20038;-70
2022/04/22 08:04:48;;;;;;;10.82;7.65;;;;;;;;;;4981182;28;20042;-71
2022/04/22 08:07:15;;;;;;;8.55;7.13;;;;;;;;;;4981992;28;20495;-70
2022/04/22 08:09:41;;;;;;;9.68;7.72;;;;;;;;;;4982244;28;20096;-72
2022/04/22 08:12:07;;;;;;;14.70;7.95;;;;;;;;;;4981652;28;20038;-72
2022/04/22 08:14:34;;;;;;;12.90;7.07;;;;;;;;;;4981571;28;20038;-70
2022/04/22 08:17:02;;;;;;;14.15;8.98;;;;;;;;;;4981643;28;20030;-72
2022/04/22 08:19:28;;;;;;;8.50;7.45;;;;;;;;;;4982228;28;20038;-72
2022/04/22 08:21:53;;;;;;;13.18;8.02;;;;;;;;;;4981626;28;20049;-73
2022/04/22 08:24:19;;;;;;;8.38;7.40;;;;;;;;;;4983167;28;20026;-70
2022/04/22 08:26:46;;;;;;;8.80;7.43;;;;;;;;;;4981014;28;20045;-70
2022/04/22 08:29:11;;;;;;;8.52;6.85;;;;;;;;;;4981994;28;20054;-70
2022/04/22 08:31:37;;;;;;;7.78;6.68;;;;;;;;;;4981709;28;20031;-70
2022/04/22 08:34:02;;;;;;;10.45;7.32;;;;;;;;;;4981694;28;20075;-71
2022/04/22 08:36:30;;;;;;;8.75;7.50;;;;;;;;;;4980955;28;20585;-71
2022/04/22 08:38:57;;;;;;;9.48;7.30;;;;;;;;;;4981500;28;20045;-70
2022/04/22 08:41:23;;;;;;;12.77;7.20;;;;;;;;;;4980931;28;20085;-71
2022/04/22 08:43:51;;;;;;;8.35;6.97;;;;;;;;;;4978101;28;20030;-69
2022/04/22 08:51:48;;;;;;;8.73;6.45;;;;;;;;;;4978237;28;20034;-69
2022/04/22 08:54:14;;;;;;;10.52;7.57;;;;;;;;;;4961634;28;20053;-70
2022/04/22 08:56:40;;;;;;;8.95;7.50;;;;;;;;;;4981055;28;20038;-70
2022/04/22 08:59:05;;;;;;;11.45;7.05;;;;;;;;;;4981417;28;20041;-72
2022/04/22 09:01:31;;;;;;;9.00;7.15;;;;;;;;;;4980527;28;20037;-69
2022/04/22 09:03:57;;;;;;;11.02;6.88;;;;;;;;;;4981205;28;20041;-69
2022/04/22 09:06:25;;;;;;;11.02;6.95;;;;;;;;;;4979411;28;20503;-69
2022/04/22 09:08:51;;;;;;;7.55;6.50;;;;;;;;;;4980935;28;20072;-68
2022/04/22 09:11:17;;;;;;;8.25;6.70;;;;;;;;;;4981443;28;20073;-69
2022/04/22 09:13:42;;;;;;;13.32;7.40;;;;;;;;;;4981259;28;20045;-69
2022/04/22 09:16:09;;;;;;;11.65;6.53;;;;;;;;;;4981291;28;20554;-68
2022/04/22 09:18:37;;;;;;;7.97;6.63;;;;;;;;;;4980256;28;20047;-69
2022/04/22 09:21:06;;;;;;;7.90;6.75;;;;;;;;;;4981178;28;20166;-68
2022/04/22 09:23:36;;;;;;;9.32;7.13;;;;;;;;;;4981187;28;20122;-69
2022/04/22 09:26:04;;;;;;;10.05;6.93;;;;;;;;;;4981572;28;20395;-69
2022/04/22 09:28:31;;;;;;;7.78;6.78;;;;;;;;;;4980848;28;20553;-68
2022/04/22 09:31:04;;;;;;;10.63;7.53;;;;;;;;;;4984152;28;20038;-69
2022/04/22 09:33:41;;;;;;;10.80;6.97;;;;;;;;;;4984644;28;20038;-69
2022/04/22 09:44:52;;;;;;;12.75;6.82;;;;;;;;;;4984846;28;20046;-69
2022/04/22 09:47:18;;;;;;;7.95;7.10;;;;;;;;;;4985262;28;20031;-69
2022/04/22 09:49:44;;;;;;;7.40;6.55;;;;;;;;;;4985020;28;20045;-69
2022/04/22 09:52:10;;;;;;;7.88;6.88;;;;;;;;;;4980924;28;20105;-69
2022/04/22 09:54:38;;;;;;;7.30;6.60;;;;;;;;;;4985249;28;20038;-69
2022/04/22 09:57:03;;;;;;;9.43;7.20;;;;;;;;;;4984869;28;20026;-69
2022/04/22 09:59:32;;;;;;;9.88;7.75;;;;;;;;;;4985128;28;20380;-68
2022/04/22 10:01:59;;;;;;;8.05;7.10;;;;;;;;;;4966113;28;20034;-68
2022/04/22 10:04:24;;;;;;;10.95;7.68;;;;;;;;;;4982432;28;20620;-68
2022/04/22 10:06:50;;;;;;;9.25;7.05;;;;;;;;;;4984228;28;20390;-68
2022/04/22 10:09:16;;;;;;;5.45;4.88;;;;;;;;;;4950570;28;20129;-69
2022/04/22 10:11:58;;;;;;;8.40;6.57;;;;;;;;;;4985026;28;20046;-68
2022/04/22 10:14:35;;;;;;;8.80;7.30;;;;;;;;;;4983474;28;20399;-68
2022/04/22 10:17:03;;;;;;;8.93;6.55;;;;;;;;;;4966729;28;20092;-68
2022/04/22 10:19:31;;;;;;;11.15;7.00;;;;;;;;;;4984289;28;20120;-68
2022/04/22 10:21:58;;;;;;;7.72;6.85;;;;;;;;;;4984292;28;20495;-68
2022/04/22 10:24:25;;;;;;;8.25;6.85;;;;;;;;;;4983474;28;20034;-68
2022/04/22 10:26:50;;;;;;;9.73;6.60;;;;;;;;;;4984475;28;20038;-69
2022/04/22 10:29:18;;;;;;;10.45;6.00;;;;;;;;;;4984401;28;20085;-68
2022/04/22 10:31:44;;;;;;;7.47;6.65;;;;;;;;;;4983689;28;20054;-69
2022/04/22 10:34:10;;;;;;;8.35;6.88;;;;;;;;;;4984011;28;20041;-68
2022/04/22 10:36:37;;;;;;;7.53;6.45;;;;;;;;;;4983606;28;20042;-68
2022/04/22 10:39:04;;;;;;;8.48;6.75;;;;;;;;;;4984114;28;20034;-69
2022/04/22 10:41:43;;;;;;;19.00;7.07;;;;;;;;;;4983753;28;20048;-69
2022/04/22 10:49:42;;;;;;;12.13;7.50;;;;;;;;;;4983081;28;20062;-69
2022/04/22 10:52:17;;;;;;;9.68;7.18;;;;;;;;;;4982711;28;20051;-69
2022/04/22 10:54:52;;;;;;;9.32;7.47;;;;;;;;;;4983458;28;20336;-68
2022/04/22 10:57:32;;;;;;;12.57;6.65;;;;;;;;;;4983200;28;20026;-69
2022/04/22 11:00:27;;;;;;;9.07;7.18;;;;;;;;;;4983371;28;20046;-69
2022/04/22 11:03:04;;;;;;;8.77;6.55;;;;;;;;;;4983109;28;20038;-69
2022/04/22 11:05:32;;;;;;;7.53;6.57;;;;;;;;;;4983148;28;20666;-69
2022/04/22 11:07:58;;;;;;;9.63;7.15;;;;;;;;;;4982025;28;20042;-69
2022/04/22 11:10:23;;;;;;;8.65;7.18;;;;;;;;;;4983043;28;20038;-68
2022/04/22 11:12:57;;;;;;;7.18;6.32;;;;;;;;;;4965509;28;20042;-69
2022/04/22 11:15:44;;;;;;;9.13;6.90;;;;;;;;;;4982862;28;20057;-70
2022/04/22 11:18:10;;;;;;;7.88;6.85;;;;;;;;;;4983059;28;20466;-70
2022/04/22 11:21:10;;;;;;;12.35;7.00;;;;;;;;;;4983243;28;20157;-70
2022/04/22 11:23:39;;;;;;;12.70;7.15;;;;;;;;;;4978519;28;20108;-70
2022/04/22 11:26:06;;;;;;;10.00;6.75;;;;;;;;;;4982906;28;20056;-71
2022/04/22 11:28:36;;;;;;;7.90;6.68;;;;;;;;;;4983500;28;20124;-70
2022/04/22 11:31:07;;;;;;;8.30;7.20;;;;;;;;;;4981913;28;20109;-69
2022/04/22 11:34:02;;;;;;;9.50;7.05;;;;;;;;;;4982691;28;20053;-69
2022/04/22 11:36:28;;;;;;;10.70;7.68;;;;;;;;;;4980880;28;20038;-69
2022/04/22 11:38:55;;;;;;;11.07;7.28;;;;;;;;;;4980754;28;20069;-69
2022/04/22 11:41:21;;;;;;;9.45;7.50;;;;;;;;;;4980522;28;20042;-69
2022/04/22 11:43:49;;;;;;;12.13;7.10;;;;;;;;;;4980707;28;20038;-69
2022/04/22 11:46:16;;;;;;;7.88;7.07;;;;;;;;;;4981229;28;20053;-69
2022/04/22 11:48:53;;;;;;;9.38;7.53;;;;;;;;;;4981469;28;20402;-69
2022/04/22 11:51:20;;;;;;;11.93;7.70;;;;;;;;;;4981614;28;20451;-69
2022/04/22 11:53:51;;;;;;;10.00;7.65;;;;;;;;;;4981839;28;20057;-69
2022/04/22 11:56:23;;;;;;;9.57;7.22;;;;;;;;;;4982016;28;20506;-68
2022/04/22 11:58:55;;;;;;;;;;;;;;;;;;4983668;28;20044;-68
2022/04/22 12:06:58;;;;;;;9.70;5.75;;;;;;;;;;4982027;28;20041;-68
2022/04/22 12:09:23;;;;;;;7.93;6.90;;;;;;;;;;4982212;28;20034;-67
2022/04/22 12:11:50;;;;;;;10.23;7.20;;;;;;;;;;4980886;28;20038;-68
2022/04/22 12:14:24;;;;;;;10.70;7.22;;;;;;;;;;4980588;28;20042;-68
2022/04/22 12:17:00;;;;;;;13.07;7.60;;;;;;;;;;4982384;28;20049;-68
2022/04/22 12:19:26;;;;;;;10.25;7.35;;;;;;;;;;4981216;28;20065;-68
2022/04/22 12:21:53;;;;;;;9.80;8.23;;;;;;;;;;4981718;28;20068;-68
2022/04/22 12:24:21;;;;;;;11.75;7.95;;;;;;;;;;4981566;28;20037;-68
2022/04/22 12:26:47;;;;;;;12.02;7.47;;;;;;;;;;4982197;28;20042;-68
2022/04/22 12:29:17;;;;;;;10.75;7.32;;;;;;;;;;4982248;28;20049;-67
2022/04/22 12:31:47;;;;;;;9.35;7.28;;;;;;;;;;4982318;28;20042;-68
2022/04/22 12:34:13;;;;;;;11.68;7.55;;;;;;;;;;4981210;28;20046;-68
2022/04/22 12:36:51;;;;;;;15.43;7.47;;;;;;;;;;4980695;28;20435;-68
2022/04/22 12:39:31;;;;;;;8.68;7.13;;;;;;;;;;4978310;28;20117;-68
2022/04/22 12:41:57;;;;;;;11.43;7.28;;;;;;;;;;4976278;28;20435;-68
2022/04/22 12:44:22;;;;;;;11.38;7.72;;;;;;;;;;4980557;28;20483;-68
2022/04/22 12:52:28;;;;;;;9.30;8.30;;;;;;;;;;4964662;28;20385;-68
2022/04/22 12:55:09;;;;;;;12.63;8.50;;;;;;;;;;4982149;28;20048;-68
2022/04/22 12:57:41;;;;;;;9.40;8.02;;;;;;;;;;4980359;28;20553;-68
2022/04/22 13:00:16;;;;;;;12.88;8.27;;;;;;;;;;4981269;28;20062;-68
2022/04/22 13:02:42;;;;;;;11.50;7.28;;;;;;;;;;4981178;28;20224;-68
2022/04/22 13:05:19;;;;;;;11.88;7.57;;;;;;;;;;4981422;28;20125;-68
2022/04/22 13:07:47;;;;;;;8.85;7.55;;;;;;;;;;4981555;28;20512;-68
2022/04/22 13:10:13;;;;;;;9.35;7.95;;;;;;;;;;4979352;28;20041;-68
2022/04/22 13:12:40;;;;;;;9.63;8.13;;;;;;;;;;4976771;28;20061;-68
2022/04/22 13:15:12;;;;;;;8.98;7.65;;;;;;;;;;4980642;28;20537;-68
2022/04/22 13:17:43;;;;;;;14.70;8.95;;;;;;;;;;4981506;28;20486;-67
2022/04/22 13:20:09;;;;;;;9.70;7.85;;;;;;;;;;4980555;28;20122;-68
2022/04/22 13:22:36;;;;;;;11.07;8.18;;;;;;;;;;4980661;28;20486;-68
2022/04/22 13:25:03;;;;;;;8.52;7.63;;;;;;;;;;4981229;28;20038;-67
2022/04/22 13:27:28;;;;;;;9.63;7.97;;;;;;;;;;4981195;28;20042;-67
2022/04/22 13:29:54;;;;;;;8.80;7.43;;;;;;;;;;4981219;28;20045;-67
2022/04/22 13:32:19;;;;;;;8.55;7.47;;;;;;;;;;4979844;28;20038;-68
2022/04/22 13:34:45;;;;;;;10.23;7.43;;;;;;;;;;4981700;28;20502;-68
2022/04/22 13:37:11;;;;;;;10.05;8.23;;;;;;;;;;4981708;28;20034;-68
2022/04/22 13:39:36;;;;;;;12.48;7.93;;;;;;;;;;4981758;28;20042;-68
2022/04/22 13:42:02;;;;;;;15.30;8.02;;;;;;;;;;4979831;28;20084;-69
2022/04/22 13:52:39;;;;;;;10.95;8.05;;;;;;;;;;4979985;28;20049;-68
2022/04/22 13:55:05;;;;;;;8.45;7.13;;;;;;;;;;4981037;28;20050;-66
2022/04/22 13:57:30;;;;;;;7.95;7.15;;;;;;;;;;4981227;28;20034;-68
2022/04/22 13:59:56;;;;;;;9.57;8.13;;;;;;;;;;4981622;28;20042;-68
2022/04/22 14:02:21;;;;;;;10.70;7.63;;;;;;;;;;4962936;28;20381;-69
2022/04/22 14:05:24;;;;;;;9.70;7.57;;;;;;;;;;4980251;28;20041;-69
2022/04/22 14:07:51;;;;;;;13.38;7.95;;;;;;;;;;4981437;28;20435;-69
2022/04/22 14:10:17;;;;;;;10.20;6.78;;;;;;;;;;4981304;28;20117;-69
2022/04/22 14:12:43;;;;;;;9.18;6.90;;;;;;;;;;4980886;28;20883;-69
2022/04/22 14:15:09;;;;;;;8.15;7.25;;;;;;;;;;4980380;28;20084;-69
2022/04/22 14:17:34;;;;;;;8.55;7.60;;;;;;;;;;4984732;28;20044;-69
2022/04/22 14:20:03;;;;;;;8.25;7.25;;;;;;;;;;4984349;28;20501;-69
2022/04/22 14:22:29;;;;;;;10.18;7.85;;;;;;;;;;4977510;28;20044;-69
2022/04/22 14:24:55;;;;;;;9.85;7.38;;;;;;;;;;4972663;28;20053;-69
2022/04/22 14:27:20;;;;;;;11.38;7.93;;;;;;;;;;4973778;28;20069;-69
2022/04/22 14:29:46;;;;;;;14.13;7.38;;;;;;;;;;4974241;28;20915;-69
2022/04/22 14:32:13;;;;;;;10.93;7.40;;;;;;;;;;4973220;28;20042;-70
2022/04/22 14:34:39;;;;;;;9.60;7.90;;;;;;;;;;4964262;28;20106;-70
2022/04/22 14:37:06;;;;;;;10.75;7.32;;;;;;;;;;4970034;28;20038;-70
2022/04/22 14:39:33;;;;;;;11.48;7.93;;;;;;;;;;4972635;28;20042;-69
2022/04/22 14:41:59;;;;;;;12.73;7.70;;;;;;;;;;4972320;28;20049;-69
2022/04/22 14:44:24;;;;;;;15.10;7.85;;;;;;;;;;4973685;28;20053;-69
2022/04/22 14:46:50;;;;;;;11.10;7.57;;;;;;;;;;4972731;28;20041;-70
2022/04/22 14:49:15;;;;;;;8.57;7.35;;;;;;;;;;4969391;28;20037;-69
2022/04/22 14:51:45;;;;;;;12.25;7.93;;;;;;;;;;4972538;28;20077;-70
2022/04/22 14:54:11;;;;;;;10.77;7.28;;;;;;;;;;4972248;28;20050;-70
2022/04/22 14:56:37;;;;;;;8.82;7.25;;;;;;;;;;4973440;28;20034;-69
2022/04/22 14:59:02;;;;;;;13.20;7.55;;;;;;;;;;4973771;28;20050;-69
2022/04/22 15:01:28;;;;;;;9.38;7.70;;;;;;;;;;4973956;28;20061;-69
2022/04/22 15:03:53;;;;;;;9.77;7.97;;;;;;;;;;4973671;28;20042;-69
2022/04/22 15:06:19;;;;;;;9.48;7.93;;;;;;;;;;4973968;28;20042;-69
2022/04/22 15:08:45;;;;;;;11.43;8.02;;;;;;;;;;4973628;28;20049;-70
2022/04/22 15:11:11;;;;;;;9.18;7.10;;;;;;;;;;4974222;28;20038;-69
2022/04/22 15:13:36;;;;;;;11.90;8.15;;;;;;;;;;4977566;28;20072;-69
2022/04/22 15:16:02;;;;;;;10.80;7.15;;;;;;;;;;4982700;28;20034;-69
2022/04/22 15:26:44;;;;;;;8.02;6.90;;;;;;;;;;4979360;28;20371;-68
2022/04/22 15:29:12;;;;;;;8.25;6.97;;;;;;;;;;4979908;28;20073;-69
2022/04/22 15:31:39;;;;;;;10.00;7.20;;;;;;;;;;4978711;28;20046;-69
2022/04/22 15:34:05;;;;;;;8.98;7.15;;;;;;;;;;4978964;28;20050;-69
2022/04/22 15:36:30;;;;;;;12.75;6.75;;;;;;;;;;4979558;28;20411;-69
2022/04/22 15:38:58;;;;;;;8.95;6.50;;;;;;;;;;4979046;28;20495;-68
2022/04/22 15:41:30;;;;;;;8.48;7.45;;;;;;;;;;4978287;28;20042;-69
2022/04/22 15:43:56;;;;;;;;;;;;;;;;;;4979302;28;20109;-69
2022/04/22 15:46:22;;;;;;;10.32;7.70;;;;;;;;;;4979432;28;21333;-68
2022/04/22 15:48:48;;;;;;;14.35;7.75;;;;;;;;;;4982427;28;20104;-68
2022/04/22 15:51:14;;;;;;;10.00;7.00;;;;;;;;;;4982744;28;20081;-69
2022/04/22 15:53:40;;;;;;;8.90;6.82;;;;;;;;;;4981895;28;20495;-69
2022/04/22 15:56:08;;;;;;;8.15;7.03;;;;;;;;;;4982374;28;20069;-68
2022/04/22 15:58:34;;;;;;;16.00;7.03;;;;;;;;;;4983007;28;20041;-70
2022/04/22 16:00:59;;;;;;;11.63;6.13;;;;;;;;;;4982225;28;20030;-67
2022/04/22 16:03:25;;;;;;;8.07;5.80;;;;;;;;;;4981607;28;20049;-67
2022/04/22 16:05:52;;;;;;;10.23;6.57;;;;;;;;;;4980048;28;20129;-69